Lincoln, New York
Current Conditions -  °F | °C
As of 7:54 AM on Tuesday 21 Oct 2014 (Local Time) from KSYR Reporting Station
Drizzle Drizzle  
Wind Chill: 45°   Ceiling: 3200
Heat Index: 48°   Visibility: 5mi
Dew Point: 45°   Wind: 6mph
Humidity: 90%   Direction: 110°ESE
Pressure: 29.84"   Gusts: NA
Location:  43.0414°N, 75.7453°W
Report Text: KSYR 211154Z 11005KT 5SM -DZ BR SCT020 BKN032 OVC050 09/07 A2984 RMK SLP102 T00890074 10100 20089 51003
Loading
Personal Weather Stations






























Interactive Weather Map
Tropical Storm Tracking
New forecast layout! Learn more

10-Day Weather Forecast

Advertisements
Track Severe Weather on mobile